Terminal Aerodrome Forecast
Issued by NWS

Home | Current Version | Previous Version | Text Only | Print | Product List | Glossary On
Versions: 1 2 3 4 5 6 7 8 9 10 11 12 13 14 15 16 17 18 19 20 21 22 23 24 25 26
000
FTUS43 KMQT 310531
TAFSAW
TAF
KSAW 310531Z 3106/0106 21006KT 3SM -SN OVC015
     FM310900 24005KT P6SM OVC020
     FM311600 34012G20KT P6SM -SHSN OVC020=

USA.gov is the U.S. government's official web portal to all federal, state and local government web resources and services.